Time;durP1;ratioP1;P1;durP2;ratioP2;P2;SDS_P1;SDS_P2;PMS_P1;PMS_P2;Temp;Humidity;BMP_temperature;BMP_pressure;BME280_temperature;BME280_humidity;BME280_pressure;Samples;Min_cycle;Max_cycle;Signal;HPM_P1;HPM_P2
2022/07/14 00:01:25;;;;;;;846.70;782.33;;;21.00;3.90;;;;;;4992808;28;20744;-69
2022/07/14 00:03:51;;;;;;;682.67;638.70;;;21.10;3.60;;;;;;4992770;28;20419;-69
2022/07/14 00:06:16;;;;;;;997.93;920.63;;;21.10;3.50;;;;;;4992903;28;20177;-70
2022/07/14 00:08:45;;;;;;;918.00;848.53;;;21.10;3.30;;;;;;4992476;28;20180;-69
2022/07/14 00:11:11;;;;;;;701.80;653.17;;;21.20;3.10;;;;;;4992714;28;20312;-69
2022/07/14 00:13:37;;;;;;;578.80;545.83;;;21.20;3.60;;;;;;4992520;28;20412;-69
2022/07/14 00:16:04;;;;;;;665.07;623.83;;;21.20;4.20;;;;;;4994266;28;20416;-70
2022/07/14 00:18:30;;;;;;;656.90;615.43;;;21.20;3.80;;;;;;4996244;28;20514;-70
2022/07/14 00:20:56;;;;;;;704.30;656.17;;;21.20;3.00;;;;;;4996421;28;20803;-69
2022/07/14 00:23:24;;;;;;;581.37;551.03;;;21.20;2.90;;;;;;4996801;28;20498;-69
2022/07/14 00:25:50;;;;;;;968.33;884.03;;;21.20;2.10;;;;;;4996681;28;20169;-69
2022/07/14 00:28:15;;;;;;;622.40;584.20;;;21.20;2.50;;;;;;5011140;28;20428;-69
2022/07/14 00:30:41;;;;;;;879.73;809.07;;;21.30;2.20;;;;;;4996350;28;20870;-69
2022/07/14 00:33:06;;;;;;;871.57;806.27;;;21.30;2.20;;;;;;4996568;28;20231;-69
2022/07/14 00:35:32;;;;;;;966.93;891.60;;;21.40;2.30;;;;;;4996619;28;20184;-69
2022/07/14 00:37:57;;;;;;;530.10;501.90;;;21.30;2.80;;;;;;4996043;28;20267;-69
2022/07/14 00:40:23;;;;;;;668.33;626.90;;;21.30;3.00;;;;;;4996049;28;20220;-69
2022/07/14 00:42:49;;;;;;;731.83;684.17;;;21.20;3.40;;;;;;4996101;28;20177;-69
2022/07/14 00:45:20;;;;;;;564.37;533.40;;;21.20;3.50;;;;;;4996180;28;20205;-69
2022/07/14 00:47:47;;;;;;;788.77;733.63;;;21.20;3.80;;;;;;4995975;28;20462;-69
2022/07/14 00:50:15;;;;;;;741.10;687.43;;;21.10;3.50;;;;;;4995807;28;20447;-69
2022/07/14 00:52:45;;;;;;;818.83;760.73;;;21.10;3.60;;;;;;4996336;28;20430;-69
2022/07/14 00:55:12;;;;;;;888.33;820.87;;;21.00;3.60;;;;;;5011274;28;20466;-69
2022/07/14 00:57:38;;;;;;;864.87;800.53;;;21.00;3.80;;;;;;4996284;28;20423;-69
2022/07/14 01:00:09;;;;;;;667.80;627.67;;;21.00;4.30;;;;;;4995513;28;20479;-69
2022/07/14 01:02:35;;;;;;;714.70;667.70;;;20.90;4.50;;;;;;4995838;28;20536;-69
2022/07/14 01:05:01;;;;;;;819.60;761.63;;;20.90;4.70;;;;;;4995944;28;20438;-69
2022/07/14 01:07:27;;;;;;;896.23;829.17;;;20.80;4.80;;;;;;4995958;28;20422;-69
2022/07/14 01:09:53;;;;;;;894.57;827.70;;;20.80;4.90;;;;;;4995539;28;20439;-69
2022/07/14 01:12:18;;;;;;;880.90;815.70;;;20.80;4.90;;;;;;4994707;28;20304;-69
2022/07/14 01:14:45;;;;;;;868.03;803.53;;;20.70;5.00;;;;;;4995823;28;20184;-69
2022/07/14 01:17:11;;;;;;;641.57;602.20;;;20.60;5.20;;;;;;4995751;28;20187;-69
2022/07/14 01:19:37;;;;;;;732.03;679.20;;;20.60;5.20;;;;;;4995381;28;20439;-69
2022/07/14 01:22:03;;;;;;;659.97;617.40;;;20.50;5.40;;;;;;4995707;28;20901;-68
2022/07/14 01:24:29;;;;;;;624.40;587.80;;;20.50;5.60;;;;;;4995617;28;20416;-69
2022/07/14 01:26:55;;;;;;;800.47;743.63;;;20.40;5.50;;;;;;4995334;28;20451;-69
2022/07/14 01:29:21;;;;;;;993.63;919.17;;;20.30;5.80;;;;;;4995095;28;20472;-69
2022/07/14 01:31:46;;;;;;;777.40;722.73;;;20.30;5.80;;;;;;5010449;28;20275;-69
2022/07/14 01:34:12;;;;;;;833.43;773.13;;;20.20;5.80;;;;;;4995364;28;20985;-69
2022/07/14 01:36:38;;;;;;;696.97;648.70;;;20.20;5.70;;;;;;4995301;28;20607;-70
2022/07/14 01:39:05;;;;;;;718.20;669.47;;;20.10;6.00;;;;;;4994686;28;20299;-69
2022/07/14 01:41:30;;;;;;;694.93;648.33;;;20.00;6.70;;;;;;5010221;28;20214;-69
2022/07/14 01:43:57;;;;;;;737.60;687.67;;;19.80;6.90;;;;;;4995237;28;20478;-69
2022/07/14 01:46:23;;;;;;;577.70;542.43;;;19.80;7.10;;;;;;4995229;28;20174;-68
2022/07/14 01:48:49;;;;;;;562.17;530.77;;;;;;;;;;4994940;28;20416;-69
2022/07/14 01:51:14;;;;;;;664.30;621.57;;;19.60;6.80;;;;;;4995102;28;20426;-68
2022/07/14 01:53:41;;;;;;;829.53;770.20;;;19.50;7.20;;;;;;4995234;28;20419;-69
2022/07/14 01:56:07;;;;;;;646.57;609.47;;;19.50;7.20;;;;;;4995346;28;20177;-69
2022/07/14 01:58:33;;;;;;;598.80;566.10;;;19.50;7.20;;;;;;4994819;28;20420;-68
2022/07/14 02:03:44;;;;;;;987.20;911.60;;;19.20;7.00;;;;;;4995236;28;20199;-69
2022/07/14 02:06:10;;;;;;;988.67;911.90;;;19.30;7.20;;;;;;5009820;28;20404;-69
2022/07/14 02:08:36;;;;;;;919.20;850.67;;;19.20;7.00;;;;;;4995018;28;20474;-69
2022/07/14 02:13:45;;;;;;;683.80;640.87;;;19.30;7.10;;;;;;4994812;28;20204;-68
2022/07/14 02:16:11;;;;;;;752.43;700.93;;;19.10;7.00;;;;;;4994840;28;20416;-69
2022/07/14 02:18:36;;;;;;;702.60;656.63;;;19.10;7.20;;;;;;4994162;28;20184;-69
2022/07/14 02:21:02;;;;;;;718.27;671.20;;;19.00;7.00;;;;;;4995916;28;20228;-70
2022/07/14 02:23:27;;;;;;;654.20;613.63;;;18.90;7.40;;;;;;4994512;28;20176;-71
2022/07/14 02:25:53;;;;;;;951.60;879.83;;;18.90;7.30;;;;;;4994368;28;20183;-70
2022/07/14 02:28:18;;;;;;;929.70;863.43;;;18.90;7.70;;;;;;4994105;28;20235;-71
2022/07/14 02:30:46;;;;;;;902.70;837.40;;;18.90;7.50;;;;;;4994362;28;20204;-70
2022/07/14 02:33:11;;;;;;;1026.43;948.93;;;18.90;7.60;;;;;;4994228;28;20180;-69
2022/07/14 02:35:37;;;;;;;762.90;710.90;;;19.00;7.80;;;;;;4994191;28;20789;-70
2022/07/14 02:38:03;;;;;;;977.27;906.03;;;18.80;8.00;;;;;;4993388;28;20231;-70
2022/07/14 02:40:29;;;;;;;1013.23;931.67;;;18.80;8.30;;;;;;4994113;28;20255;-69
2022/07/14 02:42:55;;;;;;;887.17;822.50;;;18.80;8.20;;;;;;4994109;28;20447;-69
2022/07/14 02:45:20;;;;;;;980.33;904.63;;;18.70;9.00;;;;;;4994685;28;20240;-69
2022/07/14 02:47:46;;;;;;;825.53;767.77;;;18.60;8.60;;;;;;5008898;28;20173;-71
2022/07/14 02:50:11;;;;;;;848.60;791.37;;;18.70;8.50;;;;;;4993751;28;20206;-69
2022/07/14 02:52:37;;;;;;;713.63;670.23;;;18.60;8.40;;;;;;4994267;28;20181;-69
2022/07/14 02:55:03;;;;;;;913.97;848.90;;;18.50;8.50;;;;;;4994022;28;20596;-69
2022/07/14 02:57:29;;;;;;;918.43;853.40;;;18.50;8.70;;;;;;4993767;28;20515;-71
2022/07/14 02:59:55;;;;;;;1023.90;947.27;;;18.40;8.70;;;;;;4993234;28;20497;-69
2022/07/14 03:02:21;;;;;;;737.30;689.27;;;18.50;8.40;;;;;;4993668;28;20439;-70
2022/07/14 03:04:46;;;;;;;662.50;622.57;;;18.50;8.20;;;;;;4992475;28;20542;-69
2022/07/14 03:07:12;;;;;;;861.40;803.07;;;18.50;8.40;;;;;;4992702;28;20204;-68
2022/07/14 03:09:38;;;;;;;748.97;699.83;;;18.50;8.70;;;;;;4992055;28;20193;-69
2022/07/14 03:12:03;;;;;;;776.73;723.90;;;18.40;8.70;;;;;;4993755;28;20596;-70
2022/07/14 03:14:29;;;;;;;909.20;842.60;;;18.40;9.00;;;;;;4992972;28;20180;-70
2022/07/14 03:16:55;;;;;;;1047.83;971.43;;;18.30;9.00;;;;;;4991685;28;20543;-70
2022/07/14 03:19:20;;;;;;;696.27;650.87;;;18.30;9.20;;;;;;4992926;28;20283;-70
2022/07/14 03:21:46;;;;;;;804.20;750.83;;;18.40;9.30;;;;;;4993180;28;20200;-71
2022/07/14 03:24:12;;;;;;;920.23;851.37;;;18.30;9.50;;;;;;4993252;28;20179;-71
2022/07/14 03:26:38;;;;;;;976.20;904.80;;;18.20;9.60;;;;;;5008538;28;20425;-71
2022/07/14 03:29:05;;;;;;;968.40;894.93;;;18.30;9.60;;;;;;4992863;28;20442;-70
2022/07/14 03:31:30;;;;;;;904.53;844.70;;;18.30;9.70;;;;;;4993180;28;20412;-71
2022/07/14 03:33:56;;;;;;;575.33;547.80;;;18.30;9.70;;;;;;4993309;28;20503;-70
2022/07/14 03:36:21;;;;;;;1016.53;940.20;;;18.10;10.00;;;;;;4993503;28;20191;-70
2022/07/14 03:38:47;;;;;;;630.40;596.83;;;18.00;10.30;;;;;;4992686;28;20181;-70
2022/07/14 03:41:13;;;;;;;848.23;792.27;;;18.00;10.20;;;;;;4993701;28;20470;-70
2022/07/14 03:43:38;;;;;;;932.57;867.93;;;18.10;10.40;;;;;;4993090;28;20267;-70
2022/07/14 03:46:05;;;;;;;1020.97;944.63;;;18.00;10.20;;;;;;4992848;28;20205;-71
2022/07/14 03:48:31;;;;;;;618.73;583.70;;;18.10;10.00;;;;;;4992659;28;20260;-70
2022/07/14 03:50:57;;;;;;;791.70;743.80;;;18.00;10.10;;;;;;4992045;28;20423;-70
2022/07/14 03:53:22;;;;;;;791.23;744.10;;;18.00;10.30;;;;;;4992925;28;20423;-70
2022/07/14 03:55:48;;;;;;;611.83;580.10;;;18.00;10.60;;;;;;4992975;28;20658;-70
2022/07/14 03:58:14;;;;;;;761.33;713.43;;;18.00;10.40;;;;;;4992429;28;20542;-70
2022/07/14 04:00:40;;;;;;;697.03;656.77;;;17.90;10.60;;;;;;5007597;28;20678;-70
2022/07/14 04:03:05;;;;;;;911.73;847.40;;;18.00;10.60;;;;;;4992937;28;20414;-71
2022/07/14 04:05:31;;;;;;;1005.20;931.53;;;18.10;10.30;;;;;;4992811;28;20665;-71
2022/07/14 04:07:56;;;;;;;695.10;655.97;;;18.20;10.40;;;;;;4992418;28;20646;-70
2022/07/14 04:10:22;;;;;;;975.63;903.00;;;18.20;10.20;;;;;;4992617;28;20216;-71
2022/07/14 04:12:48;;;;;;;623.40;586.00;;;18.20;10.20;;;;;;4992741;28;20218;-69
2022/07/14 04:15:13;;;;;;;716.70;675.73;;;18.30;10.30;;;;;;4992591;28;20575;-71
2022/07/14 04:17:39;;;;;;;791.67;739.57;;;18.30;10.40;;;;;;4992509;28;20181;-71
2022/07/14 04:20:05;;;;;;;841.00;785.13;;;18.30;10.50;;;;;;4992210;28;20223;-70
2022/07/14 04:22:31;;;;;;;759.77;712.50;;;18.30;10.90;;;;;;4992720;28;20180;-70
2022/07/14 04:24:56;;;;;;;712.37;673.00;;;18.30;10.90;;;;;;4992505;28;20500;-69
2022/07/14 04:27:22;;;;;;;922.83;855.83;;;18.20;10.80;;;;;;4992750;28;20176;-70
2022/07/14 04:29:47;;;;;;;816.23;762.37;;;18.20;10.90;;;;;;4992333;28;20540;-69
2022/07/14 04:32:13;;;;;;;837.80;781.30;;;18.30;10.90;;;;;;4992644;28;20528;-69
2022/07/14 04:34:39;;;;;;;828.63;775.43;;;18.40;11.00;;;;;;4992508;28;20177;-69
2022/07/14 04:37:05;;;;;;;775.10;727.93;;;18.50;11.10;;;;;;4992246;28;20678;-70
2022/07/14 04:39:31;;;;;;;905.47;844.53;;;18.70;10.70;;;;;;4991973;28;20471;-68
2022/07/14 04:41:56;;;;;;;920.20;860.63;;;18.90;10.00;;;;;;4992487;28;20411;-71
2022/07/14 04:44:22;;;;;;;619.03;584.53;;;19.10;9.80;;;;;;4992319;28;20199;-71
2022/07/14 04:46:48;;;;;;;967.40;896.60;;;19.30;9.20;;;;;;4992248;28;20173;-69
2022/07/14 04:52:03;;;;;;;931.40;860.87;;;19.80;8.50;;;;;;4992229;28;20345;-69
2022/07/14 04:54:30;;;;;;;733.60;688.43;;;20.00;8.50;;;;;;4992245;28;20414;-70
2022/07/14 04:56:56;;;;;;;1002.47;924.87;;;20.20;8.20;;;;;;4992155;28;20426;-70
2022/07/14 04:59:22;;;;;;;609.37;574.50;;;20.50;7.90;;;;;;4992150;28;20427;-70
2022/07/14 05:01:47;;;;;;;844.13;781.83;;;20.80;8.10;;;;;;4993067;28;20193;-71
2022/07/14 05:04:13;;;;;;;988.93;908.73;;;21.30;7.00;;;;;;4994720;28;20180;-71
2022/07/14 05:06:39;;;;;;;525.40;499.00;;;;;;;;;;4995825;28;20181;-70
2022/07/14 05:09:04;;;;;;;567.73;533.33;;;22.60;4.50;;;;;;4995750;28;20203;-70
2022/07/14 05:11:30;;;;;;;694.87;647.10;;;23.10;4.30;;;;;;5011168;28;20423;-72
2022/07/14 05:13:57;;;;;;;543.40;511.63;;;23.20;3.80;;;;;;4994506;28;20173;-69
2022/07/14 05:16:22;;;;;;;591.53;557.10;;;23.10;3.80;;;;;;4996340;28;20276;-72
2022/07/14 05:18:48;;;;;;;565.37;532.83;;;23.00;3.90;;;;;;4997031;28;20850;-69
2022/07/14 05:21:14;;;;;;;894.20;814.93;;;22.90;3.90;;;;;;4995713;28;20580;-71
2022/07/14 05:23:41;;;;;;;726.03;673.43;;;23.00;4.30;;;;;;4995596;28;20239;-70
2022/07/14 05:26:10;;;;;;;748.50;693.67;;;;;;;;;;4995547;28;20412;-70
2022/07/14 05:28:36;;;;;;;970.40;878.40;;;25.70;1.20;;;;;;4995275;28;20502;-70
2022/07/14 05:31:11;;;;;;;790.30;732.83;;;27.00;1.00;;;;;;4995551;28;20519;-72
2022/07/14 05:33:37;;;;;;;883.43;807.27;;;;;;;;;;4995864;28;20225;-70
2022/07/14 05:36:12;;;;;;;921.20;835.33;;;28.70;1.00;;;;;;4995753;28;20832;-71
2022/07/14 05:38:38;;;;;;;858.17;788.60;;;29.30;1.00;;;;;;4995180;28;20419;-70
2022/07/14 05:41:04;;;;;;;989.17;892.03;;;29.40;1.00;;;;;;4995502;28;20498;-70
2022/07/14 05:43:31;;;;;;;985.87;892.03;;;29.80;1.00;;;;;;4995425;28;20204;-70
2022/07/14 05:46:03;;;;;;;964.27;870.47;;;30.60;1.00;;;;;;4995102;28;20201;-70
2022/07/14 05:48:28;;;;;;;884.20;806.87;;;31.80;1.00;;;;;;4994776;28;20423;-70
2022/07/14 05:51:01;;;;;;;1117.97;942.30;;;32.40;1.00;;;;;;4995157;28;20446;-70
2022/07/14 05:53:27;;;;;;;840.77;768.43;;;32.50;1.00;;;;;;4995334;28;20179;-70
2022/07/14 05:55:53;;;;;;;1062.43;947.13;;;32.40;1.00;;;;;;4995094;28;20427;-70
2022/07/14 05:58:18;;;;;;;973.90;881.03;;;;;;;;;;4996731;28;20181;-70
2022/07/14 06:00:44;;;;;;;927.40;850.03;;;;;;;;;;4995845;28;20250;-69
2022/07/14 06:03:10;;;;;;;918.43;839.20;;;33.90;1.00;;;;;;4995587;28;20474;-69
2022/07/14 06:05:35;;;;;;;934.83;852.20;;;34.60;1.00;;;;;;5011133;28;20173;-69
2022/07/14 06:08:01;;;;;;;896.83;824.87;;;35.30;1.00;;;;;;4995580;28;20184;-69
2022/07/14 06:10:26;;;;;;;1173.40;991.27;;;36.00;1.00;;;;;;4996120;28;20200;-69
2022/07/14 06:12:52;;;;;;;1135.63;961.27;;;36.60;1.00;;;;;;4994395;28;20236;-69
2022/07/14 06:15:18;;;;;;;965.33;875.43;;;37.00;1.00;;;;;;4996048;28;20208;-69
2022/07/14 06:17:43;;;;;;;1046.40;935.60;;;37.50;1.00;;;;;;4995931;28;20557;-68
2022/07/14 06:20:09;;;;;;;966.77;873.23;;;37.90;1.00;;;;;;4995517;28;20211;-68
2022/07/14 06:22:36;;;;;;;953.10;862.10;;;37.00;1.00;;;;;;4996744;28;20249;-70
2022/07/14 06:25:02;;;;;;;908.37;823.63;;;37.40;1.00;;;;;;4996444;28;20743;-70
2022/07/14 06:27:28;;;;;;;973.50;873.63;;;37.80;1.00;;;;;;4996031;28;20419;-68
2022/07/14 06:29:54;;;;;;;1036.80;925.40;;;36.70;1.00;;;;;;4995471;28;21009;-68
2022/07/14 06:32:20;;;;;;;941.57;851.07;;;37.60;1.00;;;;;;4995233;28;20177;-68
2022/07/14 06:34:45;;;;;;;857.53;781.97;;;38.10;1.00;;;;;;4995053;28;20466;-68
2022/07/14 06:37:11;;;;;;;955.30;864.50;;;38.40;1.00;;;;;;4995252;28;20181;-69
2022/07/14 06:39:37;;;;;;;963.97;868.60;;;38.60;1.00;;;;;;4994615;28;20212;-71
2022/07/14 06:42:03;;;;;;;1011.80;907.83;;;38.90;1.00;;;;;;4992047;28;20906;-68
2022/07/14 06:44:29;;;;;;;817.30;748.20;;;39.30;1.00;;;;;;4993921;28;20654;-69
2022/07/14 06:46:55;;;;;;;824.13;751.90;;;;;;;;;;4994933;28;20511;-69
2022/07/14 06:49:21;;;;;;;910.20;824.43;;;36.90;1.00;;;;;;4979715;28;20472;-69
2022/07/14 06:51:47;;;;;;;893.43;809.93;;;34.00;1.00;;;;;;4975059;28;20449;-70
2022/07/14 06:54:12;;;;;;;1005.27;911.37;;;33.60;1.00;;;;;;4987341;28;20193;-70
2022/07/14 06:56:38;;;;;;;1078.83;948.97;;;33.70;1.00;;;;;;4993380;28;20177;-69
2022/07/14 06:59:03;;;;;;;930.00;847.90;;;33.90;1.00;;;;;;4992421;28;20403;-70
2022/07/14 07:01:29;;;;;;;913.00;829.63;;;;;;;;;;4979269;28;20213;-70
2022/07/14 07:03:55;;;;;;;919.30;839.40;;;33.20;1.00;;;;;;4974016;28;20178;-71
2022/07/14 07:09:05;;;;;;;860.90;792.30;;;31.80;1.00;;;;;;4993099;28;20219;-70
2022/07/14 07:11:30;;;;;;;909.53;831.37;;;30.10;1.00;;;;;;4993268;28;20428;-69
2022/07/14 07:13:56;;;;;;;1171.43;983.33;;;30.90;1.00;;;;;;4979579;28;20675;-70
2022/07/14 07:16:21;;;;;;;1017.60;919.70;;;31.80;1.00;;;;;;4972122;28;20189;-70
2022/07/14 07:18:47;;;;;;;1009.47;911.13;;;;;;;;;;4985388;28;20613;-67
2022/07/14 07:21:14;;;;;;;1036.73;936.90;;;33.00;1.00;;;;;;4990060;28;20811;-68
2022/07/14 07:23:44;;;;;;;982.70;894.13;;;33.90;1.00;;;;;;4991624;28;20781;-68
2022/07/14 07:26:10;;;;;;;982.70;894.17;;;34.80;1.00;;;;;;4991195;28;20424;-69
2022/07/14 07:28:35;;;;;;;1259.43;999.90;;;35.20;1.00;;;;;;4990871;28;20619;-70
2022/07/14 07:31:01;;;;;;;944.53;860.27;;;35.70;1.00;;;;;;4990754;28;20654;-68
2022/07/14 07:33:27;;;;;;;1014.97;915.83;;;35.20;1.00;;;;;;4992179;28;20191;-69
2022/07/14 07:35:53;;;;;;;1113.07;990.93;;;34.50;1.00;;;;;;4993045;28;20331;-70
2022/07/14 07:38:19;;;;;;;992.20;895.40;;;34.80;1.00;;;;;;4992586;28;20806;-70
2022/07/14 07:40:47;;;;;;;1016.50;914.53;;;35.30;1.00;;;;;;4992750;28;20475;-70
2022/07/14 07:43:13;;;;;;;1106.93;981.50;;;35.50;1.00;;;;;;4992393;28;20514;-70
2022/07/14 07:45:38;;;;;;;978.57;886.20;;;36.20;1.00;;;;;;4992934;28;20443;-70
2022/07/14 07:48:04;;;;;;;905.47;826.83;;;36.90;1.00;;;;;;4992149;28;20568;-70
2022/07/14 07:50:30;;;;;;;913.37;836.47;;;35.70;1.00;;;;;;4992831;28;20573;-69
2022/07/14 07:52:56;;;;;;;1046.77;941.97;;;35.80;1.00;;;;;;4992631;28;20840;-71
2022/07/14 07:55:21;;;;;;;1073.20;956.40;;;36.20;1.00;;;;;;4992409;28;20439;-71
2022/07/14 07:57:47;;;;;;;991.27;898.13;;;36.70;1.00;;;;;;4992829;28;20185;-71
2022/07/14 08:00:13;;;;;;;1064.80;953.83;;;37.50;1.00;;;;;;4992202;28;20216;-71
2022/07/14 08:02:48;;;;;;;1066.93;954.80;;;37.90;1.00;;;;;;4992242;28;20188;-71
2022/07/14 08:05:16;;;;;;;1068.47;956.73;;;38.50;1.00;;;;;;4991110;28;20411;-71
2022/07/14 08:07:42;;;;;;;1030.97;928.97;;;39.10;1.00;;;;;;4992462;28;20412;-70
2022/07/14 08:10:07;;;;;;;1034.33;930.13;;;39.30;1.00;;;;;;4987333;28;20451;-70
2022/07/14 08:12:33;;;;;;;1048.80;939.40;;;39.50;1.00;;;;;;4988091;28;20286;-71
2022/07/14 08:14:58;;;;;;;1025.83;919.43;;;40.00;1.00;;;;;;4985416;28;20197;-71
2022/07/14 08:17:24;;;;;;;1245.67;999.90;;;40.60;1.00;;;;;;4974229;28;20196;-70
2022/07/14 08:19:49;;;;;;;1009.77;908.30;;;41.00;1.00;;;;;;4985526;28;20492;-70
2022/07/14 08:22:22;;;;;;;936.17;847.63;;;41.40;1.00;;;;;;4984957;28;20300;-70
2022/07/14 08:24:47;;;;;;;867.07;793.77;;;40.50;1.00;;;;;;4991843;28;20172;-70
2022/07/14 08:27:13;;;;;;;1018.00;915.50;;;39.90;1.00;;;;;;4990589;28;20430;-72
2022/07/14 08:29:38;;;;;;;1061.57;948.20;;;39.90;1.00;;;;;;4991161;28;20290;-70
2022/07/14 08:32:05;;;;;;;902.13;822.13;;;40.00;1.00;;;;;;4991055;28;20208;-70
2022/07/14 08:34:30;;;;;;;1126.93;980.87;;;40.00;1.00;;;;;;4988421;28;20185;-68
2022/07/14 08:36:58;;;;;;;1004.60;907.03;;;39.70;1.00;;;;;;4988691;28;20442;-68
2022/07/14 08:39:24;;;;;;;1124.80;971.30;;;37.50;1.00;;;;;;4991205;28;20215;-67
2022/07/14 08:41:51;;;;;;;1002.27;905.43;;;38.00;1.00;;;;;;4984750;28;20475;-68
2022/07/14 08:44:18;;;;;;;969.73;879.40;;;38.00;1.00;;;;;;4990998;28;20598;-68
2022/07/14 08:46:43;;;;;;;1013.33;913.00;;;37.60;1.00;;;;;;4995420;28;20851;-68
2022/07/14 08:49:09;;;;;;;953.40;863.57;;;37.60;1.00;;;;;;4995057;28;20435;-68
2022/07/14 08:51:38;;;;;;;1067.87;954.90;;;37.40;1.00;;;;;;4995269;28;20216;-67
2022/07/14 08:54:05;;;;;;;1004.67;905.50;;;37.10;1.00;;;;;;4995818;28;20176;-67
2022/07/14 08:56:30;;;;;;;945.93;863.67;;;36.90;1.00;;;;;;4995584;28;20434;-67
2022/07/14 08:58:56;;;;;;;1019.27;918.70;;;36.60;1.00;;;;;;4995218;28;20436;-68
2022/07/14 09:01:22;;;;;;;949.93;867.07;;;36.50;1.00;;;;;;4994882;28;20204;-68
2022/07/14 09:03:49;;;;;;;953.57;862.47;;;36.20;1.00;;;;;;4995031;28;20172;-68
2022/07/14 09:06:52;;;;;;;1011.57;916.13;;;35.70;1.00;;;;;;4995249;28;20176;-68
2022/07/14 09:09:22;;;;;;;986.17;897.67;;;35.20;1.00;;;;;;4980730;28;20948;-68
2022/07/14 09:11:58;;;;;;;980.87;894.20;;;34.60;1.00;;;;;;4974853;28;20475;-69
2022/07/14 09:14:26;;;;;;;977.67;886.27;;;34.00;1.00;;;;;;4990501;28;20449;-68
2022/07/14 09:16:53;;;;;;;989.90;901.60;;;33.60;1.00;;;;;;4993775;28;20423;-67
2022/07/14 09:19:20;;;;;;;983.30;890.23;;;33.30;1.00;;;;;;4993976;28;20489;-68
2022/07/14 09:21:53;;;;;;;1050.17;943.20;;;33.00;1.00;;;;;;4994635;28;20565;-68
2022/07/14 09:24:20;;;;;;;973.00;887.33;;;32.80;1.00;;;;;;4994613;28;20424;-68
2022/07/14 09:26:48;;;;;;;972.60;884.57;;;32.50;1.00;;;;;;4994913;28;20835;-68
2022/07/14 09:29:23;;;;;;;1016.27;919.60;;;32.30;1.00;;;;;;4994135;28;20471;-68
2022/07/14 09:31:48;;;;;;;958.00;872.53;;;32.10;1.00;;;;;;4993131;28;20857;-69
2022/07/14 09:34:26;;;;;;;1029.10;929.10;;;;;;;;;;4994593;28;20450;-69
2022/07/14 09:36:52;;;;;;;920.83;841.37;;;31.70;1.00;;;;;;4994814;28;20913;-69
2022/07/14 09:39:18;;;;;;;1053.17;943.23;;;31.60;1.00;;;;;;4994265;28;20479;-69
2022/07/14 09:41:52;;;;;;;1028.87;917.00;;;31.60;1.00;;;;;;4994437;28;20219;-69
2022/07/14 09:44:18;;;;;;;1007.97;909.67;;;31.40;1.00;;;;;;4993851;28;21166;-69
2022/07/14 09:46:56;;;;;;;1005.90;910.03;;;31.30;1.00;;;;;;4993816;28;20431;-68
2022/07/14 09:49:24;;;;;;;934.30;854.73;;;31.30;1.00;;;;;;4993392;28;20459;-68
2022/07/14 09:52:06;;;;;;;930.63;853.77;;;31.30;1.00;;;;;;4988578;28;20921;-68
2022/07/14 09:54:46;;;;;;;1039.73;933.27;;;31.30;1.00;;;;;;4991925;28;20432;-67
2022/07/14 09:57:12;;;;;;;948.73;862.03;;;31.30;1.00;;;;;;4990052;28;20839;-68
2022/07/14 09:59:56;;;;;;;863.17;790.70;;;31.30;1.00;;;;;;4989227;28;20535;-69
2022/07/14 10:02:22;;;;;;;991.77;896.97;;;31.40;1.00;;;;;;4974587;28;20552;-69
2022/07/14 10:04:50;;;;;;;882.43;808.87;;;31.40;1.00;;;;;;4988533;28;20416;-69
2022/07/14 10:07:17;;;;;;;830.37;767.93;;;31.50;1.00;;;;;;4974549;28;20401;-69
2022/07/14 10:10:10;;;;;;;935.20;851.40;;;31.50;1.00;;;;;;4973941;28;20440;-69
2022/07/14 10:12:37;;;;;;;884.20;810.80;;;31.50;1.00;;;;;;4973589;28;20428;-69
2022/07/14 10:15:05;;;;;;;1018.93;923.40;;;31.70;1.00;;;;;;4976502;28;20409;-69
2022/07/14 10:17:34;;;;;;;1034.20;928.93;;;31.80;1.00;;;;;;4993634;28;20424;-69
2022/07/14 10:20:02;;;;;;;848.67;775.60;;;31.80;1.00;;;;;;4993094;28;20423;-69
2022/07/14 10:22:29;;;;;;;889.97;812.27;;;31.90;1.00;;;;;;4993789;28;20495;-69
2022/07/14 10:24:56;;;;;;;942.97;853.07;;;31.90;1.00;;;;;;4992103;28;20453;-69
2022/07/14 10:27:22;;;;;;;872.73;801.60;;;32.00;1.00;;;;;;4993577;28;20470;-69
2022/07/14 10:29:53;;;;;;;973.30;875.27;;;32.00;1.00;;;;;;4992956;28;20420;-70
2022/07/14 10:33:01;;;;;;;910.57;834.53;;;32.00;1.00;;;;;;4993373;28;20181;-68
2022/07/14 10:35:44;;;;;;;889.70;811.70;;;31.80;1.00;;;;;;4993153;28;20896;-67
2022/07/14 10:38:34;;;;;;;866.00;792.07;;;31.50;1.00;;;;;;4992983;28;20408;-68
2022/07/14 10:41:07;;;;;;;900.90;818.77;;;31.20;1.00;;;;;;4992873;28;20463;-67
2022/07/14 10:43:50;;;;;;;1081.80;962.00;;;30.90;1.00;;;;;;4982032;28;20444;-67
2022/07/14 10:46:42;;;;;;;857.07;788.43;;;30.70;1.00;;;;;;4975305;28;20511;-67
2022/07/14 10:49:09;;;;;;;913.47;834.47;;;30.40;1.00;;;;;;4992599;28;20440;-67
2022/07/14 10:51:53;;;;;;;883.63;809.33;;;30.30;1.00;;;;;;4991825;28;20454;-67
2022/07/14 10:54:27;;;;;;;836.30;772.20;;;30.10;1.00;;;;;;4983655;28;20427;-68
2022/07/14 10:57:13;;;;;;;871.77;803.67;;;30.10;1.00;;;;;;4992492;28;20430;-68
2022/07/14 10:59:41;;;;;;;818.70;753.97;;;30.00;1.00;;;;;;4987497;28;20810;-67
2022/07/14 11:02:12;;;;;;;855.60;786.10;;;29.90;1.00;;;;;;4992653;28;20495;-68
2022/07/14 11:04:56;;;;;;;945.90;859.83;;;29.90;1.00;;;;;;4976110;28;20932;-67
2022/07/14 11:07:46;;;;;;;893.37;820.30;;;29.90;1.00;;;;;;4973349;28;20416;-67
2022/07/14 11:10:21;;;;;;;795.63;736.97;;;29.80;1.00;;;;;;4974891;28;20453;-67
2022/07/14 11:13:04;;;;;;;822.67;762.20;;;29.80;1.00;;;;;;4983372;28;20419;-68
2022/07/14 11:15:54;;;;;;;908.87;833.53;;;29.70;1.00;;;;;;4973244;28;20412;-66
2022/07/14 11:18:26;;;;;;;857.33;786.80;;;29.60;1.00;;;;;;4972752;28;20445;-68
2022/07/14 11:21:08;;;;;;;873.00;799.93;;;29.60;1.00;;;;;;4989053;28;20467;-68
2022/07/14 11:23:36;;;;;;;939.10;853.77;;;29.50;1.00;;;;;;4991827;28;20424;-68
2022/07/14 11:26:05;;;;;;;899.90;816.73;;;29.70;1.00;;;;;;4992192;28;20436;-67
2022/07/14 11:28:48;;;;;;;825.13;758.20;;;29.80;1.00;;;;;;4991677;28;20431;-68
2022/07/14 11:31:22;;;;;;;838.33;768.83;;;29.80;1.00;;;;;;4992363;28;20494;-68
2022/07/14 11:36:59;;;;;;;855.27;777.93;;;29.90;1.00;;;;;;4992706;28;20462;-68
2022/07/14 11:39:28;;;;;;;812.83;751.83;;;30.00;1.00;;;;;;4992139;28;20473;-68
2022/07/14 11:42:08;;;;;;;849.30;779.83;;;30.00;1.00;;;;;;4992340;28;20470;-67
2022/07/14 11:44:36;;;;;;;858.30;790.93;;;30.00;1.00;;;;;;4991888;28;20423;-67
2022/07/14 11:47:09;;;;;;;954.93;863.80;;;29.90;1.00;;;;;;4992064;28;20515;-67
2022/07/14 11:49:36;;;;;;;1072.37;956.00;;;29.70;1.00;;;;;;4991673;28;20479;-67
2022/07/14 11:52:04;;;;;;;864.47;794.40;;;29.80;1.00;;;;;;4992408;28;20788;-67
2022/07/14 11:54:30;;;;;;;955.27;864.83;;;29.90;1.00;;;;;;4991946;28;20423;-67
2022/07/14 11:57:10;;;;;;;995.13;900.30;;;30.00;1.00;;;;;;4996950;28;20423;-67
2022/07/14 11:59:39;;;;;;;930.70;844.73;;;30.00;1.00;;;;;;4991805;28;20436;-67
2022/07/14 12:02:10;;;;;;;855.50;785.90;;;30.20;1.00;;;;;;4991275;28;20468;-67
2022/07/14 12:04:49;;;;;;;981.37;885.63;;;30.30;1.00;;;;;;4992585;28;20429;-67
2022/07/14 12:07:15;;;;;;;931.53;846.10;;;30.30;1.00;;;;;;4992600;28;20419;-67
2022/07/14 12:09:42;;;;;;;795.53;733.23;;;30.40;1.00;;;;;;4991620;28;20432;-67
2022/07/14 12:12:08;;;;;;;876.70;802.07;;;30.40;1.00;;;;;;4993368;28;20501;-68
2022/07/14 12:14:42;;;;;;;815.77;753.60;;;30.20;1.00;;;;;;4996052;28;20431;-68
2022/07/14 12:17:08;;;;;;;863.63;792.37;;;30.10;1.00;;;;;;4996219;28;20191;-68
2022/07/14 12:19:33;;;;;;;851.67;778.80;;;30.00;1.00;;;;;;4995796;28;20436;-66
2022/07/14 12:22:01;;;;;;;822.73;759.70;;;30.00;1.00;;;;;;4995981;28;20666;-67
2022/07/14 12:24:27;;;;;;;969.80;880.00;;;30.00;1.00;;;;;;4995853;28;20176;-68
2022/07/14 12:26:56;;;;;;;797.43;735.43;;;30.00;1.00;;;;;;4996090;28;20443;-69
2022/07/14 12:29:22;;;;;;;825.90;762.80;;;30.20;1.00;;;;;;4995525;28;20460;-69
2022/07/14 12:31:47;;;;;;;884.70;809.50;;;30.20;1.00;;;;;;4994238;28;20435;-69
2022/07/14 12:34:15;;;;;;;777.63;720.17;;;30.20;1.00;;;;;;4995433;28;20260;-69
2022/07/14 12:36:41;;;;;;;913.27;833.13;;;30.20;1.00;;;;;;4995271;28;20233;-69